sensor_id;sensor_type;location;lat;lon;timestamp;P1;durP1;ratioP1;P2;durP2;ratioP2
73951;SDS011;62304;47.662;18.324;2022-10-22T00:00:38;15.27;;;7.00;;
73951;SDS011;62304;47.662;18.324;2022-10-22T00:03:40;13.30;;;6.80;;
73951;SDS011;62304;47.662;18.324;2022-10-22T00:06:43;15.90;;;7.55;;
73951;SDS011;62304;47.662;18.324;2022-10-22T00:09:46;15.00;;;7.18;;
73951;SDS011;62304;47.662;18.324;2022-10-22T00:12:49;16.35;;;7.00;;
73951;SDS011;62304;47.662;18.324;2022-10-22T00:15:52;19.83;;;7.93;;
73951;SDS011;62304;47.662;18.324;2022-10-22T00:18:54;17.07;;;8.93;;
73951;SDS011;62304;47.662;18.324;2022-10-22T00:21:57;17.80;;;8.27;;
73951;SDS011;62304;47.662;18.324;2022-10-22T00:25:00;18.23;;;7.93;;
73951;SDS011;62304;47.662;18.324;2022-10-22T00:28:03;17.15;;;8.70;;
73951;SDS011;62304;47.662;18.324;2022-10-22T00:31:06;15.60;;;8.47;;
73951;SDS011;62304;47.662;18.324;2022-10-22T00:34:09;15.80;;;9.03;;
73951;SDS011;62304;47.662;18.324;2022-10-22T00:37:11;25.05;;;10.02;;
73951;SDS011;62304;47.662;18.324;2022-10-22T00:40:16;26.70;;;9.48;;
73951;SDS011;62304;47.662;18.324;2022-10-22T00:43:19;17.33;;;8.77;;
73951;SDS011;62304;47.662;18.324;2022-10-22T00:46:22;18.03;;;7.90;;
73951;SDS011;62304;47.662;18.324;2022-10-22T00:49:24;21.47;;;8.20;;
73951;SDS011;62304;47.662;18.324;2022-10-22T00:52:27;16.25;;;8.20;;
73951;SDS011;62304;47.662;18.324;2022-10-22T00:55:30;18.15;;;7.87;;
73951;SDS011;62304;47.662;18.324;2022-10-22T00:58:35;19.80;;;9.52;;
73951;SDS011;62304;47.662;18.324;2022-10-22T01:01:41;24.50;;;9.37;;
73951;SDS011;62304;47.662;18.324;2022-10-22T01:04:48;21.93;;;9.43;;
73951;SDS011;62304;47.662;18.324;2022-10-22T01:07:51;22.25;;;10.40;;
73951;SDS011;62304;47.662;18.324;2022-10-22T01:10:59;24.23;;;10.10;;
73951;SDS011;62304;47.662;18.324;2022-10-22T01:30:25;20.88;;;10.00;;
73951;SDS011;62304;47.662;18.324;2022-10-22T01:33:28;23.77;;;9.40;;
73951;SDS011;62304;47.662;18.324;2022-10-22T01:36:32;16.60;;;8.53;;
73951;SDS011;62304;47.662;18.324;2022-10-22T01:39:36;16.15;;;8.55;;
73951;SDS011;62304;47.662;18.324;2022-10-22T01:42:41;16.45;;;8.38;;
73951;SDS011;62304;47.662;18.324;2022-10-22T01:45:46;16.12;;;8.52;;
73951;SDS011;62304;47.662;18.324;2022-10-22T01:53:06;15.53;;;8.67;;
73951;SDS011;62304;47.662;18.324;2022-10-22T02:02:42;16.98;;;8.95;;
73951;SDS011;62304;47.662;18.324;2022-10-22T02:05:58;49.23;;;13.57;;
73951;SDS011;62304;47.662;18.324;2022-10-22T02:09:06;33.07;;;11.37;;
73951;SDS011;62304;47.662;18.324;2022-10-22T02:12:11;37.50;;;11.57;;
73951;SDS011;62304;47.662;18.324;2022-10-22T02:15:15;25.90;;;11.05;;
73951;SDS011;62304;47.662;18.324;2022-10-22T02:18:22;22.05;;;9.63;;
73951;SDS011;62304;47.662;18.324;2022-10-22T02:21:29;23.83;;;9.67;;
73951;SDS011;62304;47.662;18.324;2022-10-22T02:24:33;27.47;;;10.17;;
73951;SDS011;62304;47.662;18.324;2022-10-22T02:27:43;25.12;;;9.93;;
73951;SDS011;62304;47.662;18.324;2022-10-22T02:30:51;24.40;;;9.73;;
73951;SDS011;62304;47.662;18.324;2022-10-22T02:33:57;27.25;;;9.93;;
73951;SDS011;62304;47.662;18.324;2022-10-22T02:37:05;31.20;;;10.83;;
73951;SDS011;62304;47.662;18.324;2022-10-22T02:40:09;24.23;;;10.20;;
73951;SDS011;62304;47.662;18.324;2022-10-22T02:43:12;31.00;;;10.60;;
73951;SDS011;62304;47.662;18.324;2022-10-22T02:46:15;30.55;;;11.30;;
73951;SDS011;62304;47.662;18.324;2022-10-22T02:49:18;32.13;;;12.75;;
73951;SDS011;62304;47.662;18.324;2022-10-22T02:52:21;34.03;;;12.47;;
73951;SDS011;62304;47.662;18.324;2022-10-22T02:55:23;28.80;;;11.83;;
73951;SDS011;62304;47.662;18.324;2022-10-22T02:58:26;27.25;;;11.12;;
73951;SDS011;62304;47.662;18.324;2022-10-22T03:01:29;30.80;;;12.15;;
73951;SDS011;62304;47.662;18.324;2022-10-22T03:04:32;42.55;;;16.77;;
73951;SDS011;62304;47.662;18.324;2022-10-22T03:07:35;29.37;;;12.00;;
73951;SDS011;62304;47.662;18.324;2022-10-22T03:10:38;27.77;;;12.07;;
73951;SDS011;62304;47.662;18.324;2022-10-22T03:13:41;28.55;;;11.55;;
73951;SDS011;62304;47.662;18.324;2022-10-22T03:16:44;26.87;;;11.70;;
73951;SDS011;62304;47.662;18.324;2022-10-22T03:19:47;24.45;;;11.63;;
73951;SDS011;62304;47.662;18.324;2022-10-22T03:22:50;29.93;;;11.93;;
73951;SDS011;62304;47.662;18.324;2022-10-22T03:25:54;25.63;;;11.73;;
73951;SDS011;62304;47.662;18.324;2022-10-22T03:28:57;27.05;;;11.38;;
73951;SDS011;62304;47.662;18.324;2022-10-22T03:32:02;29.10;;;11.80;;
73951;SDS011;62304;47.662;18.324;2022-10-22T03:35:05;26.17;;;11.80;;
73951;SDS011;62304;47.662;18.324;2022-10-22T03:38:08;24.33;;;10.40;;
73951;SDS011;62304;47.662;18.324;2022-10-22T03:41:11;22.10;;;9.83;;
73951;SDS011;62304;47.662;18.324;2022-10-22T03:44:14;21.42;;;10.43;;
73951;SDS011;62304;47.662;18.324;2022-10-22T03:47:18;22.40;;;10.27;;
73951;SDS011;62304;47.662;18.324;2022-10-22T03:50:21;25.60;;;10.40;;
73951;SDS011;62304;47.662;18.324;2022-10-22T03:53:24;19.67;;;10.07;;
73951;SDS011;62304;47.662;18.324;2022-10-22T03:56:27;24.00;;;9.97;;
73951;SDS011;62304;47.662;18.324;2022-10-22T03:59:36;22.65;;;9.55;;
73951;SDS011;62304;47.662;18.324;2022-10-22T04:02:40;19.00;;;9.52;;
73951;SDS011;62304;47.662;18.324;2022-10-22T04:05:43;17.48;;;10.23;;
73951;SDS011;62304;47.662;18.324;2022-10-22T04:08:46;19.50;;;10.30;;
73951;SDS011;62304;47.662;18.324;2022-10-22T04:11:58;19.93;;;10.57;;
73951;SDS011;62304;47.662;18.324;2022-10-22T04:15:01;19.65;;;10.80;;
73951;SDS011;62304;47.662;18.324;2022-10-22T04:18:06;20.37;;;10.10;;
73951;SDS011;62304;47.662;18.324;2022-10-22T04:21:09;19.87;;;10.88;;
73951;SDS011;62304;47.662;18.324;2022-10-22T04:24:13;22.60;;;11.40;;
73951;SDS011;62304;47.662;18.324;2022-10-22T04:27:16;21.67;;;11.70;;
73951;SDS011;62304;47.662;18.324;2022-10-22T04:30:19;24.45;;;11.65;;
73951;SDS011;62304;47.662;18.324;2022-10-22T04:33:21;27.27;;;12.35;;
73951;SDS011;62304;47.662;18.324;2022-10-22T04:36:25;27.92;;;12.77;;
73951;SDS011;62304;47.662;18.324;2022-10-22T04:39:30;30.70;;;13.27;;
73951;SDS011;62304;47.662;18.324;2022-10-22T04:42:33;31.20;;;14.30;;
73951;SDS011;62304;47.662;18.324;2022-10-22T04:45:36;27.37;;;13.18;;
73951;SDS011;62304;47.662;18.324;2022-10-22T04:48:39;24.27;;;12.50;;
73951;SDS011;62304;47.662;18.324;2022-10-22T04:51:43;29.52;;;12.73;;
73951;SDS011;62304;47.662;18.324;2022-10-22T04:54:46;25.53;;;12.80;;
73951;SDS011;62304;47.662;18.324;2022-10-22T04:57:51;24.87;;;13.13;;
73951;SDS011;62304;47.662;18.324;2022-10-22T05:00:54;28.48;;;14.20;;
73951;SDS011;62304;47.662;18.324;2022-10-22T05:03:58;27.55;;;12.70;;
73951;SDS011;62304;47.662;18.324;2022-10-22T05:07:03;24.90;;;13.30;;
73951;SDS011;62304;47.662;18.324;2022-10-22T05:10:06;25.53;;;13.70;;
73951;SDS011;62304;47.662;18.324;2022-10-22T05:13:09;85.83;;;35.00;;
73951;SDS011;62304;47.662;18.324;2022-10-22T05:16:14;49.80;;;23.27;;
73951;SDS011;62304;47.662;18.324;2022-10-22T05:19:27;87.70;;;30.70;;
73951;SDS011;62304;47.662;18.324;2022-10-22T05:22:32;84.22;;;31.42;;
73951;SDS011;62304;47.662;18.324;2022-10-22T05:25:38;72.63;;;28.17;;
73951;SDS011;62304;47.662;18.324;2022-10-22T05:28:40;76.77;;;27.07;;
73951;SDS011;62304;47.662;18.324;2022-10-22T05:31:45;57.25;;;22.48;;
73951;SDS011;62304;47.662;18.324;2022-10-22T05:34:49;56.97;;;23.45;;
73951;SDS011;62304;47.662;18.324;2022-10-22T05:37:51;51.72;;;20.40;;
73951;SDS011;62304;47.662;18.324;2022-10-22T05:40:58;36.73;;;16.13;;
73951;SDS011;62304;47.662;18.324;2022-10-22T05:44:02;28.07;;;14.60;;
73951;SDS011;62304;47.662;18.324;2022-10-22T05:47:07;27.17;;;15.05;;
73951;SDS011;62304;47.662;18.324;2022-10-22T05:50:11;33.42;;;15.35;;
73951;SDS011;62304;47.662;18.324;2022-10-22T05:53:17;30.23;;;15.93;;
73951;SDS011;62304;47.662;18.324;2022-10-22T05:56:21;29.03;;;16.20;;
73951;SDS011;62304;47.662;18.324;2022-10-22T05:59:24;31.50;;;13.50;;
73951;SDS011;62304;47.662;18.324;2022-10-22T06:02:28;31.60;;;15.15;;
73951;SDS011;62304;47.662;18.324;2022-10-22T06:05:36;31.20;;;15.75;;
73951;SDS011;62304;47.662;18.324;2022-10-22T06:08:44;31.85;;;16.95;;
73951;SDS011;62304;47.662;18.324;2022-10-22T06:11:51;38.67;;;19.37;;
73951;SDS011;62304;47.662;18.324;2022-10-22T06:14:54;38.53;;;20.77;;
73951;SDS011;62304;47.662;18.324;2022-10-22T06:17:58;36.15;;;19.67;;
73951;SDS011;62304;47.662;18.324;2022-10-22T06:21:10;39.35;;;21.85;;
73951;SDS011;62304;47.662;18.324;2022-10-22T06:24:15;32.58;;;18.60;;
73951;SDS011;62304;47.662;18.324;2022-10-22T06:27:18;38.33;;;21.33;;
73951;SDS011;62304;47.662;18.324;2022-10-22T06:30:21;37.73;;;19.17;;
73951;SDS011;62304;47.662;18.324;2022-10-22T06:33:24;35.50;;;20.73;;
73951;SDS011;62304;47.662;18.324;2022-10-22T06:36:28;37.53;;;20.33;;
73951;SDS011;62304;47.662;18.324;2022-10-22T06:39:30;40.45;;;20.25;;
73951;SDS011;62304;47.662;18.324;2022-10-22T06:42:33;35.60;;;19.50;;
73951;SDS011;62304;47.662;18.324;2022-10-22T06:45:37;38.83;;;19.97;;
73951;SDS011;62304;47.662;18.324;2022-10-22T06:48:41;37.05;;;18.85;;
73951;SDS011;62304;47.662;18.324;2022-10-22T06:51:44;33.97;;;18.00;;
73951;SDS011;62304;47.662;18.324;2022-10-22T06:54:50;37.45;;;18.90;;
73951;SDS011;62304;47.662;18.324;2022-10-22T06:57:53;40.83;;;22.03;;
73951;SDS011;62304;47.662;18.324;2022-10-22T07:01:21;32.67;;;16.37;;
73951;SDS011;62304;47.662;18.324;2022-10-22T07:04:23;34.20;;;16.17;;
73951;SDS011;62304;47.662;18.324;2022-10-22T07:07:26;32.15;;;16.25;;
73951;SDS011;62304;47.662;18.324;2022-10-22T07:10:29;31.70;;;15.27;;
73951;SDS011;62304;47.662;18.324;2022-10-22T07:13:33;33.77;;;14.90;;
73951;SDS011;62304;47.662;18.324;2022-10-22T07:16:36;31.80;;;14.73;;
73951;SDS011;62304;47.662;18.324;2022-10-22T07:19:39;33.65;;;15.35;;
73951;SDS011;62304;47.662;18.324;2022-10-22T07:22:42;32.20;;;21.00;;
73951;SDS011;62304;47.662;18.324;2022-10-22T07:25:45;45.63;;;22.77;;
73951;SDS011;62304;47.662;18.324;2022-10-22T07:28:49;34.97;;;19.73;;
73951;SDS011;62304;47.662;18.324;2022-10-22T07:31:53;30.93;;;17.13;;
73951;SDS011;62304;47.662;18.324;2022-10-22T07:34:56;29.80;;;15.70;;
73951;SDS011;62304;47.662;18.324;2022-10-22T07:38:05;25.62;;;15.25;;
73951;SDS011;62304;47.662;18.324;2022-10-22T07:41:11;31.02;;;14.68;;
73951;SDS011;62304;47.662;18.324;2022-10-22T07:44:16;31.83;;;14.60;;
73951;SDS011;62304;47.662;18.324;2022-10-22T07:47:19;20.27;;;12.07;;
73951;SDS011;62304;47.662;18.324;2022-10-22T07:50:24;16.60;;;8.13;;
73951;SDS011;62304;47.662;18.324;2022-10-22T07:53:29;18.83;;;9.00;;
73951;SDS011;62304;47.662;18.324;2022-10-22T07:56:37;17.17;;;7.93;;
73951;SDS011;62304;47.662;18.324;2022-10-22T07:59:41;12.00;;;6.50;;
73951;SDS011;62304;47.662;18.324;2022-10-22T08:02:47;9.47;;;5.30;;
73951;SDS011;62304;47.662;18.324;2022-10-22T08:05:50;9.38;;;5.40;;
73951;SDS011;62304;47.662;18.324;2022-10-22T08:08:53;11.43;;;5.12;;
73951;SDS011;62304;47.662;18.324;2022-10-22T08:11:56;16.08;;;6.20;;
73951;SDS011;62304;47.662;18.324;2022-10-22T08:14:59;12.43;;;5.40;;
73951;SDS011;62304;47.662;18.324;2022-10-22T08:18:02;8.27;;;4.10;;
73951;SDS011;62304;47.662;18.324;2022-10-22T08:21:06;14.75;;;5.97;;
73951;SDS011;62304;47.662;18.324;2022-10-22T08:24:10;9.98;;;5.72;;
73951;SDS011;62304;47.662;18.324;2022-10-22T08:27:13;13.93;;;6.40;;
73951;SDS011;62304;47.662;18.324;2022-10-22T08:30:16;13.83;;;6.87;;
73951;SDS011;62304;47.662;18.324;2022-10-22T08:33:19;14.63;;;7.47;;
73951;SDS011;62304;47.662;18.324;2022-10-22T08:36:23;13.70;;;6.25;;
73951;SDS011;62304;47.662;18.324;2022-10-22T08:39:25;12.23;;;6.87;;
73951;SDS011;62304;47.662;18.324;2022-10-22T08:49:28;14.73;;;6.43;;
73951;SDS011;62304;47.662;18.324;2022-10-22T08:52:39;13.23;;;6.85;;
73951;SDS011;62304;47.662;18.324;2022-10-22T08:55:46;17.48;;;8.68;;
73951;SDS011;62304;47.662;18.324;2022-10-22T09:06:09;19.07;;;8.87;;
73951;SDS011;62304;47.662;18.324;2022-10-22T09:09:17;18.87;;;8.98;;
73951;SDS011;62304;47.662;18.324;2022-10-22T09:12:21;13.95;;;6.30;;
73951;SDS011;62304;47.662;18.324;2022-10-22T09:15:26;19.05;;;8.95;;
73951;SDS011;62304;47.662;18.324;2022-10-22T09:18:41;15.43;;;7.90;;
73951;SDS011;62304;47.662;18.324;2022-10-22T09:25:30;13.30;;;7.80;;
73951;SDS011;62304;47.662;18.324;2022-10-22T09:28:38;18.27;;;8.50;;
73951;SDS011;62304;47.662;18.324;2022-10-22T09:31:40;14.68;;;8.07;;
73951;SDS011;62304;47.662;18.324;2022-10-22T09:34:44;16.67;;;8.23;;
73951;SDS011;62304;47.662;18.324;2022-10-22T09:37:52;13.20;;;6.27;;
73951;SDS011;62304;47.662;18.324;2022-10-22T09:40:58;14.15;;;6.82;;
73951;SDS011;62304;47.662;18.324;2022-10-22T09:44:05;13.07;;;6.43;;
73951;SDS011;62304;47.662;18.324;2022-10-22T09:54:24;12.03;;;6.70;;
73951;SDS011;62304;47.662;18.324;2022-10-22T09:57:38;14.98;;;6.75;;
73951;SDS011;62304;47.662;18.324;2022-10-22T10:00:47;11.65;;;6.43;;
73951;SDS011;62304;47.662;18.324;2022-10-22T10:04:01;14.60;;;6.50;;
73951;SDS011;62304;47.662;18.324;2022-10-22T10:07:15;11.97;;;6.23;;
73951;SDS011;62304;47.662;18.324;2022-10-22T10:10:24;12.80;;;6.90;;
73951;SDS011;62304;47.662;18.324;2022-10-22T10:20:40;15.27;;;7.18;;
73951;SDS011;62304;47.662;18.324;2022-10-22T10:23:55;15.53;;;6.70;;
73951;SDS011;62304;47.662;18.324;2022-10-22T10:27:30;15.67;;;8.30;;
73951;SDS011;62304;47.662;18.324;2022-10-22T10:31:03;14.32;;;6.50;;
73951;SDS011;62304;47.662;18.324;2022-10-22T10:37:40;14.48;;;6.53;;
73951;SDS011;62304;47.662;18.324;2022-10-22T10:40:59;14.30;;;6.60;;
73951;SDS011;62304;47.662;18.324;2022-10-22T10:54:33;10.88;;;6.62;;
73951;SDS011;62304;47.662;18.324;2022-10-22T11:01:08;14.87;;;7.07;;
73951;SDS011;62304;47.662;18.324;2022-10-22T11:07:44;17.70;;;8.13;;
73951;SDS011;62304;47.662;18.324;2022-10-22T11:17:44;16.23;;;8.93;;
73951;SDS011;62304;47.662;18.324;2022-10-22T11:21:00;16.48;;;9.40;;
73951;SDS011;62304;47.662;18.324;2022-10-22T11:24:15;15.52;;;8.55;;
73951;SDS011;62304;47.662;18.324;2022-10-22T11:27:36;16.83;;;8.73;;
73951;SDS011;62304;47.662;18.324;2022-10-22T11:30:47;13.50;;;8.03;;
73951;SDS011;62304;47.662;18.324;2022-10-22T11:37:35;16.30;;;9.43;;
73951;SDS011;62304;47.662;18.324;2022-10-22T11:40:45;16.77;;;9.02;;
73951;SDS011;62304;47.662;18.324;2022-10-22T11:50:21;17.30;;;8.77;;
73951;SDS011;62304;47.662;18.324;2022-10-22T11:56:38;16.23;;;9.65;;
73951;SDS011;62304;47.662;18.324;2022-10-22T11:59:57;16.02;;;9.52;;
73951;SDS011;62304;47.662;18.324;2022-10-22T12:03:49;33.80;;;9.77;;
73951;SDS011;62304;47.662;18.324;2022-10-22T12:06:48;18.93;;;9.27;;
73951;SDS011;62304;47.662;18.324;2022-10-22T12:09:56;18.80;;;9.40;;
73951;SDS011;62304;47.662;18.324;2022-10-22T12:13:02;20.60;;;9.40;;
73951;SDS011;62304;47.662;18.324;2022-10-22T12:16:13;15.57;;;9.32;;
73951;SDS011;62304;47.662;18.324;2022-10-22T12:22:29;14.40;;;9.20;;
73951;SDS011;62304;47.662;18.324;2022-10-22T12:25:34;17.92;;;9.82;;
73951;SDS011;62304;47.662;18.324;2022-10-22T12:28:38;18.42;;;10.00;;
73951;SDS011;62304;47.662;18.324;2022-10-22T12:31:42;18.42;;;9.90;;
73951;SDS011;62304;47.662;18.324;2022-10-22T12:34:48;18.37;;;10.30;;
73951;SDS011;62304;47.662;18.324;2022-10-22T12:37:56;22.67;;;9.93;;
73951;SDS011;62304;47.662;18.324;2022-10-22T12:41:01;16.05;;;10.32;;
73951;SDS011;62304;47.662;18.324;2022-10-22T12:44:09;16.48;;;10.68;;
73951;SDS011;62304;47.662;18.324;2022-10-22T12:47:14;17.75;;;9.82;;
73951;SDS011;62304;47.662;18.324;2022-10-22T12:50:22;17.10;;;10.67;;
73951;SDS011;62304;47.662;18.324;2022-10-22T12:53:34;15.97;;;9.93;;
73951;SDS011;62304;47.662;18.324;2022-10-22T12:56:40;17.33;;;9.70;;
73951;SDS011;62304;47.662;18.324;2022-10-22T12:59:44;18.77;;;9.50;;
73951;SDS011;62304;47.662;18.324;2022-10-22T13:02:51;16.95;;;10.30;;
73951;SDS011;62304;47.662;18.324;2022-10-22T13:05:55;15.57;;;9.43;;
73951;SDS011;62304;47.662;18.324;2022-10-22T13:12:02;16.05;;;10.20;;
73951;SDS011;62304;47.662;18.324;2022-10-22T13:18:22;23.58;;;10.65;;
73951;SDS011;62304;47.662;18.324;2022-10-22T13:21:47;17.23;;;9.90;;
73951;SDS011;62304;47.662;18.324;2022-10-22T13:24:50;17.40;;;9.87;;
73951;SDS011;62304;47.662;18.324;2022-10-22T13:27:57;15.65;;;9.65;;
73951;SDS011;62304;47.662;18.324;2022-10-22T13:31:16;16.58;;;9.70;;
73951;SDS011;62304;47.662;18.324;2022-10-22T13:34:21;15.85;;;9.52;;
73951;SDS011;62304;47.662;18.324;2022-10-22T13:37:26;21.77;;;9.60;;
73951;SDS011;62304;47.662;18.324;2022-10-22T13:40:31;17.30;;;8.97;;
73951;SDS011;62304;47.662;18.324;2022-10-22T13:43:34;16.35;;;9.27;;
73951;SDS011;62304;47.662;18.324;2022-10-22T13:46:37;16.40;;;10.25;;
73951;SDS011;62304;47.662;18.324;2022-10-22T13:49:44;21.17;;;9.85;;
73951;SDS011;62304;47.662;18.324;2022-10-22T13:52:49;21.70;;;10.80;;
73951;SDS011;62304;47.662;18.324;2022-10-22T13:55:54;30.97;;;15.80;;
73951;SDS011;62304;47.662;18.324;2022-10-22T13:58:57;24.33;;;13.30;;
73951;SDS011;62304;47.662;18.324;2022-10-22T14:02:00;29.95;;;15.55;;
73951;SDS011;62304;47.662;18.324;2022-10-22T14:05:07;24.75;;;12.02;;
73951;SDS011;62304;47.662;18.324;2022-10-22T14:08:13;25.70;;;11.23;;
73951;SDS011;62304;47.662;18.324;2022-10-22T14:11:18;19.23;;;11.53;;
73951;SDS011;62304;47.662;18.324;2022-10-22T14:14:21;19.80;;;11.00;;
73951;SDS011;62304;47.662;18.324;2022-10-22T14:17:24;22.67;;;12.07;;
73951;SDS011;62304;47.662;18.324;2022-10-22T14:20:28;19.37;;;10.90;;
73951;SDS011;62304;47.662;18.324;2022-10-22T14:23:33;19.47;;;11.40;;
73951;SDS011;62304;47.662;18.324;2022-10-22T14:26:37;20.40;;;12.00;;
73951;SDS011;62304;47.662;18.324;2022-10-22T14:29:41;19.02;;;11.27;;
73951;SDS011;62304;47.662;18.324;2022-10-22T14:32:44;19.02;;;11.12;;
73951;SDS011;62304;47.662;18.324;2022-10-22T14:35:48;18.30;;;9.65;;
73951;SDS011;62304;47.662;18.324;2022-10-22T14:38:51;16.33;;;9.70;;
73951;SDS011;62304;47.662;18.324;2022-10-22T14:41:53;16.23;;;9.30;;
73951;SDS011;62304;47.662;18.324;2022-10-22T14:44:56;17.92;;;9.43;;
73951;SDS011;62304;47.662;18.324;2022-10-22T14:47:59;21.80;;;9.20;;
73951;SDS011;62304;47.662;18.324;2022-10-22T14:51:03;14.75;;;8.73;;
73951;SDS011;62304;47.662;18.324;2022-10-22T14:54:06;16.67;;;10.17;;
73951;SDS011;62304;47.662;18.324;2022-10-22T14:57:09;18.73;;;9.90;;
73951;SDS011;62304;47.662;18.324;2022-10-22T15:00:18;23.90;;;9.70;;
73951;SDS011;62304;47.662;18.324;2022-10-22T15:03:21;17.10;;;10.05;;
73951;SDS011;62304;47.662;18.324;2022-10-22T15:06:24;17.60;;;10.20;;
73951;SDS011;62304;47.662;18.324;2022-10-22T15:09:27;20.70;;;12.30;;
73951;SDS011;62304;47.662;18.324;2022-10-22T15:12:30;26.63;;;16.20;;
73951;SDS011;62304;47.662;18.324;2022-10-22T15:15:33;26.50;;;15.02;;
73951;SDS011;62304;47.662;18.324;2022-10-22T15:18:41;21.60;;;13.55;;
73951;SDS011;62304;47.662;18.324;2022-10-22T15:21:43;22.95;;;13.18;;
73951;SDS011;62304;47.662;18.324;2022-10-22T15:24:47;24.57;;;13.50;;
73951;SDS011;62304;47.662;18.324;2022-10-22T15:27:50;20.00;;;12.50;;
73951;SDS011;62304;47.662;18.324;2022-10-22T15:31:00;19.17;;;12.27;;
73951;SDS011;62304;47.662;18.324;2022-10-22T15:34:03;18.62;;;12.27;;
73951;SDS011;62304;47.662;18.324;2022-10-22T15:37:09;20.50;;;14.18;;
73951;SDS011;62304;47.662;18.324;2022-10-22T15:40:13;23.67;;;16.50;;
73951;SDS011;62304;47.662;18.324;2022-10-22T15:43:17;22.13;;;15.50;;
73951;SDS011;62304;47.662;18.324;2022-10-22T15:46:20;20.35;;;12.90;;
73951;SDS011;62304;47.662;18.324;2022-10-22T15:49:24;25.42;;;14.52;;
73951;SDS011;62304;47.662;18.324;2022-10-22T15:52:29;29.02;;;16.23;;
73951;SDS011;62304;47.662;18.324;2022-10-22T15:55:33;32.80;;;19.97;;
73951;SDS011;62304;47.662;18.324;2022-10-22T15:58:35;40.80;;;25.73;;
73951;SDS011;62304;47.662;18.324;2022-10-22T16:01:38;44.20;;;27.95;;
73951;SDS011;62304;47.662;18.324;2022-10-22T16:04:42;36.65;;;23.87;;
73951;SDS011;62304;47.662;18.324;2022-10-22T16:07:45;26.45;;;16.83;;
73951;SDS011;62304;47.662;18.324;2022-10-22T16:10:48;23.20;;;14.23;;
73951;SDS011;62304;47.662;18.324;2022-10-22T16:13:51;24.30;;;14.07;;
73951;SDS011;62304;47.662;18.324;2022-10-22T16:16:59;22.17;;;13.85;;
73951;SDS011;62304;47.662;18.324;2022-10-22T16:20:02;28.15;;;15.23;;
73951;SDS011;62304;47.662;18.324;2022-10-22T16:23:07;30.75;;;17.98;;
73951;SDS011;62304;47.662;18.324;2022-10-22T16:26:10;36.33;;;19.73;;
73951;SDS011;62304;47.662;18.324;2022-10-22T16:29:14;31.47;;;18.77;;
73951;SDS011;62304;47.662;18.324;2022-10-22T16:32:18;28.70;;;17.15;;
73951;SDS011;62304;47.662;18.324;2022-10-22T16:35:21;33.25;;;19.25;;
73951;SDS011;62304;47.662;18.324;2022-10-22T16:38:23;29.48;;;17.90;;
73951;SDS011;62304;47.662;18.324;2022-10-22T16:41:28;42.30;;;25.10;;
73951;SDS011;62304;47.662;18.324;2022-10-22T16:44:36;50.37;;;27.10;;
73951;SDS011;62304;47.662;18.324;2022-10-22T16:47:39;68.45;;;33.20;;
73951;SDS011;62304;47.662;18.324;2022-10-22T16:50:44;80.85;;;45.55;;
73951;SDS011;62304;47.662;18.324;2022-10-22T16:53:50;50.63;;;27.92;;
73951;SDS011;62304;47.662;18.324;2022-10-22T16:56:53;54.20;;;28.67;;
73951;SDS011;62304;47.662;18.324;2022-10-22T16:59:56;42.73;;;23.80;;
73951;SDS011;62304;47.662;18.324;2022-10-22T17:02:59;39.60;;;21.05;;
73951;SDS011;62304;47.662;18.324;2022-10-22T17:06:03;36.95;;;21.23;;
73951;SDS011;62304;47.662;18.324;2022-10-22T17:09:06;34.83;;;20.98;;
73951;SDS011;62304;47.662;18.324;2022-10-22T17:12:11;37.20;;;23.00;;
73951;SDS011;62304;47.662;18.324;2022-10-22T17:15:14;40.67;;;22.90;;
73951;SDS011;62304;47.662;18.324;2022-10-22T17:18:17;38.03;;;23.23;;
73951;SDS011;62304;47.662;18.324;2022-10-22T17:21:20;42.53;;;28.17;;
73951;SDS011;62304;47.662;18.324;2022-10-22T17:24:24;36.78;;;23.45;;
73951;SDS011;62304;47.662;18.324;2022-10-22T17:27:27;43.73;;;25.57;;
73951;SDS011;62304;47.662;18.324;2022-10-22T17:30:30;44.13;;;27.37;;
73951;SDS011;62304;47.662;18.324;2022-10-22T17:33:34;47.55;;;27.48;;
73951;SDS011;62304;47.662;18.324;2022-10-22T17:36:46;46.80;;;27.05;;
73951;SDS011;62304;47.662;18.324;2022-10-22T17:39:51;45.25;;;25.67;;
73951;SDS011;62304;47.662;18.324;2022-10-22T17:42:58;44.87;;;25.73;;
73951;SDS011;62304;47.662;18.324;2022-10-22T17:46:07;46.93;;;26.10;;
73951;SDS011;62304;47.662;18.324;2022-10-22T17:49:20;46.45;;;27.27;;
73951;SDS011;62304;47.662;18.324;2022-10-22T17:52:25;47.78;;;26.83;;
73951;SDS011;62304;47.662;18.324;2022-10-22T17:55:31;45.12;;;25.52;;
73951;SDS011;62304;47.662;18.324;2022-10-22T17:58:38;42.63;;;24.87;;
73951;SDS011;62304;47.662;18.324;2022-10-22T18:01:43;46.70;;;27.37;;
73951;SDS011;62304;47.662;18.324;2022-10-22T18:04:51;48.72;;;27.55;;
73951;SDS011;62304;47.662;18.324;2022-10-22T18:07:54;54.10;;;29.23;;
73951;SDS011;62304;47.662;18.324;2022-10-22T18:10:58;48.15;;;27.13;;
73951;SDS011;62304;47.662;18.324;2022-10-22T18:14:02;62.33;;;34.13;;
73951;SDS011;62304;47.662;18.324;2022-10-22T18:17:07;54.50;;;31.77;;
73951;SDS011;62304;47.662;18.324;2022-10-22T18:20:10;50.45;;;30.33;;
73951;SDS011;62304;47.662;18.324;2022-10-22T18:23:14;48.15;;;28.30;;
73951;SDS011;62304;47.662;18.324;2022-10-22T18:26:17;49.53;;;28.27;;
73951;SDS011;62304;47.662;18.324;2022-10-22T18:29:28;50.87;;;28.73;;
73951;SDS011;62304;47.662;18.324;2022-10-22T18:32:32;48.57;;;27.07;;
73951;SDS011;62304;47.662;18.324;2022-10-22T18:35:36;43.90;;;26.23;;
73951;SDS011;62304;47.662;18.324;2022-10-22T18:38:40;46.67;;;26.50;;
73951;SDS011;62304;47.662;18.324;2022-10-22T18:41:49;50.70;;;27.77;;
73951;SDS011;62304;47.662;18.324;2022-10-22T18:45:01;49.63;;;28.13;;
73951;SDS011;62304;47.662;18.324;2022-10-22T18:48:05;43.67;;;26.07;;
73951;SDS011;62304;47.662;18.324;2022-10-22T18:51:08;45.28;;;26.15;;
73951;SDS011;62304;47.662;18.324;2022-10-22T18:54:13;41.22;;;25.00;;
73951;SDS011;62304;47.662;18.324;2022-10-22T18:57:25;39.47;;;23.87;;
73951;SDS011;62304;47.662;18.324;2022-10-22T19:00:28;49.77;;;27.93;;
73951;SDS011;62304;47.662;18.324;2022-10-22T19:03:33;47.90;;;28.43;;
73951;SDS011;62304;47.662;18.324;2022-10-22T19:06:36;43.22;;;24.00;;
73951;SDS011;62304;47.662;18.324;2022-10-22T19:09:46;45.95;;;26.90;;
73951;SDS011;62304;47.662;18.324;2022-10-22T19:12:49;44.28;;;26.75;;
73951;SDS011;62304;47.662;18.324;2022-10-22T19:15:52;47.43;;;28.37;;
73951;SDS011;62304;47.662;18.324;2022-10-22T19:18:59;42.60;;;26.73;;
73951;SDS011;62304;47.662;18.324;2022-10-22T19:22:05;54.85;;;32.97;;
73951;SDS011;62304;47.662;18.324;2022-10-22T19:25:08;50.45;;;29.40;;
73951;SDS011;62304;47.662;18.324;2022-10-22T19:28:13;44.28;;;26.27;;
73951;SDS011;62304;47.662;18.324;2022-10-22T19:31:18;46.23;;;27.13;;
73951;SDS011;62304;47.662;18.324;2022-10-22T19:34:23;44.63;;;26.43;;
73951;SDS011;62304;47.662;18.324;2022-10-22T19:37:26;42.40;;;25.12;;
73951;SDS011;62304;47.662;18.324;2022-10-22T19:40:29;49.70;;;26.52;;
73951;SDS011;62304;47.662;18.324;2022-10-22T19:43:33;47.05;;;25.40;;